Eastport Municipal Airport (EPM)
Eastport, ME
Field Elevation: 45
Lat: 44°54.60N  Long: 67°00.76W
CTAF/Unicom Freq: 122.8000
   
     For Weather-by-Phone, call 207-853-0682
Weather Advisories
2019-01-19   08:17 Z
Altimeter 30.12" Hg
Wind 330° @ 9 KT
Gusts 18 KT
Visibility 10 SM
Temperature -6° C (21° F)
Dewpoint -17° C (1° F)
Relative Humidity 39%
Density Altitude --
Condensation Altitude 5,900 feet
Wind Chill: -12° C (10° F)
Wind and Runways
Indicated Runway = 33
Headwind = 9 kt
Crosswind = 0 kt
History
 
 
 
More Info
NOAA Forecast
 
 
About Us
Belfort Instrument
 
 
FAA Disclaimer: The data displayed is for advisory purposes only and is not to be used for flight planning or operations. For official data, please call 207-853-0682 to hear the current automated AWOS voice message.
  METAR EPM 190817Z AUTO 33009G18KT 10 SM M06/M17 A3012